createdAt,value
2023-11-08T00:01:08.713Z,4.63
2023-11-08T00:03:35.606Z,3.47
2023-11-08T00:06:05.582Z,3.60
2023-11-08T00:08:33.236Z,5.00
2023-11-08T00:11:00.031Z,4.23
2023-11-08T00:13:26.757Z,3.27
2023-11-08T00:15:54.016Z,4.60
2023-11-08T00:18:21.736Z,3.97
2023-11-08T00:20:48.550Z,4.13
2023-11-08T00:23:15.345Z,4.43
2023-11-08T00:25:42.104Z,4.17
2023-11-08T00:28:08.878Z,5.00
2023-11-08T00:30:35.631Z,4.83
2023-11-08T00:33:02.750Z,4.27
2023-11-08T00:35:29.925Z,4.50
2023-11-08T00:37:56.935Z,4.10
2023-11-08T00:40:23.974Z,3.93
2023-11-08T00:42:51.054Z,4.10
2023-11-08T00:45:17.970Z,4.00
2023-11-08T00:47:45.332Z,3.93
2023-11-08T00:50:12.162Z,4.10
2023-11-08T00:52:39.053Z,4.93
2023-11-08T00:55:07.304Z,3.30
2023-11-08T00:57:34.204Z,4.20
2023-11-08T01:00:01.058Z,3.80
2023-11-08T01:02:28.062Z,3.60
2023-11-08T01:04:55.101Z,3.80
2023-11-08T01:07:23.158Z,4.00
2023-11-08T01:09:49.914Z,4.40
2023-11-08T01:12:17.384Z,4.13
2023-11-08T01:14:45.711Z,3.87
2023-11-08T01:17:12.504Z,3.70
2023-11-08T01:19:39.249Z,3.60
2023-11-08T01:22:06.731Z,3.97
2023-11-08T01:24:35.882Z,4.90
2023-11-08T01:27:03.201Z,3.50
2023-11-08T01:29:31.490Z,4.00
2023-11-08T01:31:58.634Z,4.03
2023-11-08T01:34:25.713Z,4.13
2023-11-08T01:36:52.851Z,4.60
2023-11-08T01:39:20.209Z,3.90
2023-11-08T01:41:49.858Z,3.70
2023-11-08T01:44:20.124Z,3.20
2023-11-08T01:46:58.991Z,3.20
2023-11-08T01:49:27.737Z,3.30
2023-11-08T01:51:55.372Z,3.93
2023-11-08T01:54:24.481Z,3.40
2023-11-08T01:56:51.662Z,3.30
2023-11-08T01:59:19.371Z,4.10
2023-11-08T02:01:46.746Z,5.00
2023-11-08T02:04:14.909Z,3.93
2023-11-08T02:06:41.953Z,3.67
2023-11-08T02:09:10.210Z,3.90
2023-11-08T02:11:40.064Z,4.67
2023-11-08T02:14:07.126Z,4.10
2023-11-08T02:16:34.009Z,3.90
2023-11-08T02:19:01.107Z,3.70
2023-11-08T02:21:28.312Z,3.10
2023-11-08T02:23:55.447Z,3.67
2023-11-08T02:26:22.984Z,3.80
2023-11-08T02:28:50.244Z,4.03
2023-11-08T02:31:18.265Z,3.80
2023-11-08T02:33:45.225Z,4.10
2023-11-08T02:36:15.127Z,3.50
2023-11-08T02:38:42.062Z,4.03
2023-11-08T02:41:09.886Z,3.20
2023-11-08T02:43:37.523Z,3.60
2023-11-08T02:46:05.433Z,3.70
2023-11-08T02:48:33.472Z,4.13
2023-11-08T02:51:00.869Z,3.67
2023-11-08T02:53:27.686Z,3.57
2023-11-08T02:55:54.511Z,3.60
2023-11-08T02:58:21.388Z,3.53
2023-11-08T03:00:50.847Z,3.30
2023-11-08T03:03:18.047Z,3.67
2023-11-08T03:05:44.917Z,3.63
2023-11-08T03:08:11.859Z,3.20
2023-11-08T03:10:39.139Z,4.20
2023-11-08T03:13:06.856Z,3.93
2023-11-08T03:15:33.797Z,2.50
2023-11-08T03:18:01.410Z,3.77
2023-11-08T03:20:28.292Z,3.50
2023-11-08T03:22:55.108Z,3.77
2023-11-08T03:25:21.948Z,3.77
2023-11-08T03:27:48.901Z,3.47
2023-11-08T03:30:17.445Z,3.30
2023-11-08T03:32:44.808Z,3.47
2023-11-08T03:35:13.269Z,3.40
2023-11-08T03:37:44.210Z,3.17
2023-11-08T03:40:14.006Z,2.93
2023-11-08T03:42:42.070Z,3.80
2023-11-08T03:45:10.138Z,3.00
2023-11-08T03:47:38.871Z,2.97
2023-11-08T03:50:06.437Z,3.40
2023-11-08T03:52:33.392Z,3.53
2023-11-08T03:55:00.850Z,2.80
2023-11-08T03:57:28.431Z,2.90
2023-11-08T03:59:55.775Z,2.63
2023-11-08T04:02:23.168Z,3.47
2023-11-08T04:04:50.966Z,3.40
2023-11-08T04:07:21.743Z,2.80
2023-11-08T04:09:49.173Z,3.40
2023-11-08T04:12:16.940Z,3.33
2023-11-08T04:14:43.996Z,2.87
2023-11-08T04:17:11.594Z,2.63
2023-11-08T04:19:39.259Z,3.00
2023-11-08T04:22:07.424Z,3.20
2023-11-08T04:24:35.188Z,3.10
2023-11-08T04:27:05.621Z,3.33
2023-11-08T04:29:32.674Z,3.30
2023-11-08T04:31:59.818Z,3.40
2023-11-08T04:34:26.883Z,2.53
2023-11-08T04:36:53.904Z,2.97
2023-11-08T04:44:37.764Z,3.20
2023-11-08T04:47:04.705Z,2.87
2023-11-08T04:49:31.646Z,3.60
2023-11-08T04:51:58.848Z,3.77
2023-11-08T04:54:26.889Z,3.10
2023-11-08T04:56:54.838Z,2.97
2023-11-08T04:59:21.796Z,3.60
2023-11-08T05:01:48.742Z,3.57
2023-11-08T05:04:15.534Z,3.60
2023-11-08T05:06:42.768Z,2.90
2023-11-08T05:09:10.682Z,3.00
2023-11-08T05:11:37.590Z,3.53
2023-11-08T05:14:04.619Z,3.00
2023-11-08T05:16:35.250Z,2.60
2023-11-08T05:19:05.581Z,3.17
2023-11-08T05:21:34.065Z,3.50
2023-11-08T05:24:01.181Z,3.20
2023-11-08T05:26:27.988Z,3.03
2023-11-08T05:28:54.936Z,3.53
2023-11-08T05:31:23.245Z,3.90
2023-11-08T05:33:50.077Z,3.33
2023-11-08T05:36:17.463Z,3.60
2023-11-08T05:38:45.600Z,3.20
2023-11-08T05:41:12.893Z,3.33
2023-11-08T05:43:39.732Z,3.13
2023-11-08T05:46:07.187Z,4.00
2023-11-08T05:48:34.012Z,3.20
2023-11-08T05:51:03.167Z,2.70
2023-11-08T05:53:30.900Z,4.40
2023-11-08T05:55:57.756Z,3.87
2023-11-08T05:58:24.757Z,2.90
2023-11-08T06:00:51.563Z,3.17
2023-11-08T06:03:18.871Z,3.17
2023-11-08T06:05:45.807Z,3.90
2023-11-08T06:08:12.992Z,3.77
2023-11-08T06:10:39.921Z,3.60
2023-11-08T06:13:06.976Z,3.73
2023-11-08T06:15:33.804Z,2.93
2023-11-08T06:18:01.837Z,3.10
2023-11-08T06:20:28.928Z,3.40
2023-11-08T06:22:55.844Z,3.50
2023-11-08T06:25:22.665Z,3.77
2023-11-08T06:27:49.816Z,3.17
2023-11-08T06:30:18.209Z,2.73
2023-11-08T06:32:45.160Z,3.40
2023-11-08T06:35:12.469Z,3.20
2023-11-08T06:37:39.556Z,2.90
2023-11-08T06:40:08.785Z,4.53
2023-11-08T06:42:36.324Z,4.00
2023-11-08T06:45:07.939Z,3.80
2023-11-08T06:47:34.814Z,3.50
2023-11-08T06:50:03.130Z,3.47
2023-11-08T06:52:29.937Z,3.50
2023-11-08T06:54:56.786Z,3.43
2023-11-08T06:57:23.844Z,2.97
2023-11-08T06:59:51.233Z,3.43
2023-11-08T07:02:18.012Z,3.50
2023-11-08T07:04:47.165Z,3.00
2023-11-08T07:07:14.181Z,3.43
2023-11-08T07:09:41.206Z,3.77
2023-11-08T07:12:10.212Z,3.40
2023-11-08T07:14:37.449Z,3.47
2023-11-08T07:17:04.649Z,3.50
2023-11-08T07:19:32.133Z,3.80
2023-11-08T07:22:02.727Z,3.73
2023-11-08T07:24:29.582Z,4.67
2023-11-08T07:26:56.581Z,3.20
2023-11-08T07:29:23.437Z,3.50
2023-11-08T07:31:53.307Z,3.53
2023-11-08T07:34:23.011Z,5.20
2023-11-08T07:36:52.437Z,4.30
2023-11-08T07:39:26.972Z,4.53
2023-11-08T07:41:55.359Z,4.10
2023-11-08T07:44:22.209Z,4.70
2023-11-08T07:46:49.009Z,5.00
2023-11-08T07:49:17.563Z,3.50
2023-11-08T07:51:44.971Z,4.30
2023-11-08T07:54:12.340Z,3.80
2023-11-08T07:56:39.235Z,4.00
2023-11-08T07:59:06.320Z,3.80
2023-11-08T08:01:33.084Z,4.20
2023-11-08T08:04:01.311Z,4.03
2023-11-08T08:06:29.429Z,4.57
2023-11-08T08:08:58.965Z,5.10
2023-11-08T08:11:25.817Z,4.60
2023-11-08T08:13:53.395Z,4.03
2023-11-08T08:16:21.346Z,3.97
2023-11-08T08:18:48.781Z,4.03
2023-11-08T08:21:16.214Z,4.17
2023-11-08T08:23:51.208Z,4.40
2023-11-08T08:26:21.679Z,4.33
2023-11-08T08:28:49.961Z,4.53
2023-11-08T08:31:16.975Z,4.30
2023-11-08T08:33:46.357Z,4.60
2023-11-08T08:36:18.731Z,5.03
2023-11-08T08:38:45.813Z,4.87
2023-11-08T08:41:12.652Z,5.40
2023-11-08T08:43:39.565Z,4.27
2023-11-08T08:46:07.073Z,4.93
2023-11-08T08:48:34.432Z,4.50
2023-11-08T08:51:03.929Z,4.83
2023-11-08T08:53:30.884Z,4.73
2023-11-08T08:55:57.593Z,4.70
2023-11-08T08:58:24.588Z,4.87
2023-11-08T09:00:51.305Z,3.93
2023-11-08T09:03:18.145Z,3.60
2023-11-08T09:05:45.216Z,4.70
2023-11-08T09:08:13.022Z,3.93
2023-11-08T09:10:39.936Z,3.77
2023-11-08T09:13:06.745Z,3.60
2023-11-08T09:15:33.898Z,3.90
2023-11-08T09:18:00.665Z,3.97
2023-11-08T09:20:27.441Z,3.40
2023-11-08T09:22:54.266Z,4.10
2023-11-08T09:25:21.295Z,3.20
2023-11-08T09:27:49.293Z,3.00
2023-11-08T09:30:16.453Z,3.13
2023-11-08T09:32:46.214Z,2.90
2023-11-08T09:35:16.317Z,2.73
2023-11-08T09:37:43.257Z,2.80
2023-11-08T09:40:12.217Z,3.13
2023-11-08T09:42:39.656Z,3.10
2023-11-08T09:45:09.361Z,3.10
2023-11-08T09:47:38.352Z,2.97
2023-11-08T09:50:12.992Z,3.37
2023-11-08T09:52:40.199Z,2.83
2023-11-08T09:55:08.010Z,3.10
2023-11-08T09:57:37.505Z,2.90
2023-11-08T10:00:05.291Z,2.83
2023-11-08T10:02:34.396Z,2.70
2023-11-08T10:05:04.851Z,2.60
2023-11-08T10:07:32.513Z,2.80
2023-11-08T10:09:59.643Z,2.47
2023-11-08T10:12:26.532Z,3.57
2023-11-08T10:15:06.256Z,2.70
2023-11-08T10:19:30.228Z,3.33
2023-11-08T10:20:30.987Z,2.50
2023-11-08T10:22:58.856Z,2.97
2023-11-08T10:25:27.292Z,3.00
2023-11-08T10:28:06.153Z,2.43
2023-11-08T10:30:42.664Z,2.73
2023-11-08T10:33:11.273Z,4.73
2023-11-08T10:35:42.867Z,3.23
2023-11-08T10:38:13.303Z,2.50
2023-11-08T10:40:45.327Z,2.97
2023-11-08T10:43:12.491Z,2.80
2023-11-08T10:45:39.951Z,2.80
2023-11-08T10:48:07.258Z,3.70
2023-11-08T10:50:35.543Z,2.90
2023-11-08T10:53:02.639Z,2.73
2023-11-08T10:55:29.924Z,2.90
2023-11-08T10:58:02.617Z,2.70
2023-11-08T11:00:32.206Z,2.63
2023-11-08T11:03:13.017Z,3.07
2023-11-08T11:05:43.992Z,3.13
2023-11-08T11:08:19.655Z,2.87
2023-11-08T11:10:47.450Z,2.60
2023-11-08T11:13:26.251Z,2.43
2023-11-08T11:16:23.705Z,2.60
2023-11-08T11:19:14.120Z,2.97
2023-11-08T11:21:52.498Z,3.30
2023-11-08T11:24:34.502Z,2.20
2023-11-08T11:27:02.769Z,2.50
2023-11-08T11:29:32.382Z,2.40
2023-11-08T11:32:05.515Z,2.70
2023-11-08T11:34:37.430Z,2.80
2023-11-08T11:37:13.691Z,2.93
2023-11-08T11:40:05.630Z,2.90
2023-11-08T11:42:32.670Z,2.53
2023-11-08T11:45:11.803Z,2.53
2023-11-08T11:47:42.755Z,2.90
2023-11-08T11:50:10.774Z,2.30
2023-11-08T11:52:40.865Z,2.50
2023-11-08T11:55:11.293Z,2.63
2023-11-08T11:57:39.067Z,2.30
2023-11-08T12:00:10.782Z,2.43
2023-11-08T12:02:38.526Z,2.50
2023-11-08T12:05:06.786Z,2.40
2023-11-08T12:07:35.029Z,2.10
2023-11-08T12:10:12.798Z,2.13
2023-11-08T12:12:44.234Z,2.30
2023-11-08T12:15:15.973Z,2.50
2023-11-08T12:17:53.244Z,2.63
2023-11-08T12:20:23.004Z,2.53
2023-11-08T12:22:52.342Z,2.50
2023-11-08T12:25:22.959Z,2.80
2023-11-08T12:27:57.057Z,2.40
2023-11-08T12:30:25.517Z,2.20
2023-11-08T12:32:52.593Z,2.67
2023-11-08T12:35:19.909Z,2.40
2023-11-08T12:37:46.950Z,2.30
2023-11-08T12:40:22.265Z,3.07
2023-11-08T12:42:54.898Z,2.10
2023-11-08T12:46:34.409Z,2.10
2023-11-08T12:48:28.678Z,2.10
2023-11-08T12:50:59.707Z,2.90
2023-11-08T12:53:27.140Z,2.63
2023-11-08T12:56:02.173Z,2.53
2023-11-08T12:58:30.911Z,2.50
2023-11-08T13:00:58.932Z,2.50
2023-11-08T13:03:33.137Z,2.17
2023-11-08T13:06:00.904Z,2.20
2023-11-08T13:08:29.017Z,2.47
2023-11-08T13:10:59.637Z,2.23
2023-11-08T13:13:27.311Z,2.83
2023-11-08T13:15:55.053Z,2.13
2023-11-08T13:18:22.837Z,2.20
2023-11-08T13:20:49.828Z,2.47
2023-11-08T13:23:58.177Z,2.30
2023-11-08T13:26:05.407Z,3.10
2023-11-08T13:28:32.758Z,2.43
2023-11-08T13:30:59.778Z,2.53
2023-11-08T13:33:33.116Z,2.50
2023-11-08T13:36:00.946Z,2.03
2023-11-08T13:38:27.723Z,2.30
2023-11-08T13:40:55.844Z,2.10
2023-11-08T13:43:23.480Z,2.23
2023-11-08T13:45:50.562Z,3.03
2023-11-08T13:48:18.235Z,2.20
2023-11-08T13:50:45.144Z,2.00
2023-11-08T13:53:12.102Z,2.13
2023-11-08T13:55:39.726Z,2.13
2023-11-08T13:58:17.147Z,1.87
2023-11-08T14:00:52.284Z,1.70
2023-11-08T14:03:19.090Z,2.30
2023-11-08T14:05:46.062Z,1.83
2023-11-08T14:08:12.852Z,2.30
2023-11-08T14:10:39.624Z,2.20
2023-11-08T14:13:06.578Z,1.93
2023-11-08T14:15:35.129Z,2.37
2023-11-08T14:18:05.067Z,2.20
2023-11-08T14:20:31.898Z,2.27
2023-11-08T14:22:58.782Z,2.20
2023-11-08T14:25:27.802Z,2.20
2023-11-08T14:27:55.241Z,2.13
2023-11-08T14:30:22.173Z,2.40
2023-11-08T14:32:51.385Z,2.23
2023-11-08T14:35:18.754Z,2.60
2023-11-08T14:37:47.418Z,2.10
2023-11-08T14:40:14.710Z,4.90
2023-11-08T14:42:41.602Z,2.33
2023-11-08T14:45:09.260Z,2.20
2023-11-08T14:47:37.195Z,1.87
2023-11-08T14:50:05.227Z,2.50
2023-11-08T14:52:32.981Z,2.20
2023-11-08T14:55:01.499Z,2.33
2023-11-08T14:57:32.269Z,2.63
2023-11-08T14:59:59.462Z,2.53
2023-11-08T15:02:26.607Z,2.23
2023-11-08T15:04:57.683Z,2.40
2023-11-08T15:09:41.436Z,2.40
2023-11-08T15:10:14.425Z,1.97
2023-11-08T15:12:41.379Z,2.43
2023-11-08T15:15:10.506Z,2.50
2023-11-08T15:17:37.412Z,2.40
2023-11-08T15:20:05.285Z,2.13
2023-11-08T15:22:36.493Z,2.07
2023-11-08T15:25:12.787Z,2.53
2023-11-08T15:27:39.681Z,2.00
2023-11-08T15:30:09.210Z,2.00
2023-11-08T15:32:36.288Z,2.00
2023-11-08T15:35:03.372Z,1.97
2023-11-08T15:37:30.242Z,2.77
2023-11-08T15:39:57.206Z,2.10
2023-11-08T15:42:24.201Z,2.20
2023-11-08T15:44:51.140Z,2.33
2023-11-08T15:47:20.542Z,2.40
2023-11-08T15:49:47.894Z,2.50
2023-11-08T15:52:15.206Z,2.10
2023-11-08T15:54:42.335Z,3.13
2023-11-08T15:57:09.567Z,4.63
2023-11-08T15:59:36.440Z,3.20
2023-11-08T16:02:04.987Z,4.03
2023-11-08T16:04:32.523Z,2.47
2023-11-08T16:06:59.504Z,2.20
2023-11-08T16:09:32.312Z,2.80
2023-11-08T16:12:00.479Z,2.30
2023-11-08T16:14:27.292Z,2.60
2023-11-08T16:16:54.086Z,2.50
2023-11-08T16:19:21.390Z,2.40
2023-11-08T16:21:52.016Z,3.00
2023-11-08T16:24:18.960Z,2.70
2023-11-08T16:26:46.567Z,3.00
2023-11-08T16:29:49.652Z,2.67
2023-11-08T16:32:33.626Z,3.20
2023-11-08T16:34:49.906Z,2.93
2023-11-08T16:37:17.815Z,2.57
2023-11-08T16:39:45.196Z,2.97
2023-11-08T16:42:12.135Z,4.07
2023-11-08T16:44:39.823Z,3.80
2023-11-08T16:47:06.852Z,3.77
2023-11-08T16:49:34.107Z,3.50
2023-11-08T16:52:01.242Z,3.97
2023-11-08T16:54:28.175Z,4.27
2023-11-08T16:56:54.952Z,3.73
2023-11-08T16:59:22.272Z,4.27
2023-11-08T17:01:49.237Z,3.63
2023-11-08T17:04:16.310Z,4.10
2023-11-08T17:06:44.010Z,3.97
2023-11-08T17:09:11.804Z,4.10
2023-11-08T17:11:38.580Z,4.10
2023-11-08T17:14:05.997Z,4.03
2023-11-08T17:16:32.858Z,3.83
2023-11-08T17:19:01.037Z,3.97
2023-11-08T17:21:32.966Z,3.83
2023-11-08T17:24:00.096Z,3.67
2023-11-08T17:26:27.084Z,3.90
2023-11-08T17:28:54.213Z,5.50
2023-11-08T17:31:22.285Z,4.00
2023-11-08T17:33:49.593Z,4.80
2023-11-08T17:36:16.643Z,4.07
2023-11-08T17:38:43.778Z,5.23
2023-11-08T17:41:10.674Z,3.67
2023-11-08T17:43:41.292Z,4.07
2023-11-08T17:46:08.114Z,3.80
2023-11-08T17:48:35.806Z,3.23
2023-11-08T17:51:04.222Z,3.63
2023-11-08T17:53:31.483Z,3.43
2023-11-08T17:55:59.521Z,3.03
2023-11-08T17:58:29.423Z,2.90
2023-11-08T18:00:56.915Z,3.17
2023-11-08T18:03:23.936Z,3.40
2023-11-08T18:05:51.047Z,3.77
2023-11-08T18:08:18.074Z,3.17
2023-11-08T18:10:44.954Z,3.83
2023-11-08T18:13:11.808Z,2.93
2023-11-08T18:15:39.781Z,3.37
2023-11-08T18:18:08.597Z,2.90
2023-11-08T18:20:36.848Z,3.00
2023-11-08T18:23:06.281Z,3.40
2023-11-08T18:25:33.658Z,2.63
2023-11-08T18:28:00.465Z,2.93
2023-11-08T18:30:30.758Z,2.90
2023-11-08T18:32:58.601Z,3.20
2023-11-08T18:35:26.715Z,3.30
2023-11-08T18:37:54.053Z,3.00
2023-11-08T18:40:22.234Z,3.67
2023-11-08T18:42:49.359Z,3.57
2023-11-08T18:45:16.818Z,2.87
2023-11-08T18:47:43.814Z,3.90
2023-11-08T18:50:14.045Z,3.30
2023-11-08T18:52:40.939Z,3.53
2023-11-08T18:55:08.901Z,3.20
2023-11-08T18:57:37.019Z,3.57
2023-11-08T19:00:06.513Z,3.07
2023-11-08T19:02:33.776Z,3.20
2023-11-08T19:05:01.800Z,3.80
2023-11-08T19:07:28.982Z,3.93
2023-11-08T19:09:56.013Z,3.40
2023-11-08T19:12:23.975Z,3.90
2023-11-08T19:14:50.927Z,4.10
2023-11-08T19:17:17.733Z,3.97
2023-11-08T19:19:44.803Z,4.00
2023-11-08T19:22:12.029Z,3.27
2023-11-08T19:24:38.888Z,3.47
2023-11-08T19:27:06.002Z,3.53
2023-11-08T19:29:32.879Z,4.63
2023-11-08T19:31:59.951Z,4.37
2023-11-08T19:34:27.629Z,3.90
2023-11-08T19:36:55.910Z,4.27
2023-11-08T19:39:23.044Z,3.77
2023-11-08T19:41:50.501Z,4.20
2023-11-08T19:44:18.434Z,4.43
2023-11-08T19:46:45.222Z,4.17
2023-11-08T19:49:12.310Z,4.13
2023-11-08T19:51:39.200Z,4.80
2023-11-08T19:54:07.518Z,4.43
2023-11-08T19:56:35.526Z,4.43
2023-11-08T19:59:02.717Z,4.20
2023-11-08T20:01:29.683Z,4.90
2023-11-08T20:03:56.959Z,4.37
2023-11-08T20:06:23.960Z,4.23
2023-11-08T20:08:51.610Z,4.83
2023-11-08T20:11:18.821Z,4.07
2023-11-08T20:13:46.622Z,4.30
2023-11-08T20:16:13.591Z,5.70
2023-11-08T20:18:40.690Z,5.00
2023-11-08T20:21:10.027Z,3.40
2023-11-08T20:23:38.189Z,3.70
2023-11-08T20:26:05.730Z,3.77
2023-11-08T20:28:37.025Z,4.07
2023-11-08T20:31:05.904Z,3.83
2023-11-08T20:33:34.791Z,5.00
2023-11-08T20:36:02.200Z,4.60
2023-11-08T20:38:29.667Z,4.30
2023-11-08T20:40:57.043Z,4.70
2023-11-08T20:43:24.391Z,4.60
2023-11-08T20:45:51.615Z,5.23
2023-11-08T20:48:18.448Z,6.30
2023-11-08T20:50:45.309Z,6.07
2023-11-08T20:53:12.346Z,5.67
2023-11-08T20:55:39.693Z,5.33
2023-11-08T20:58:07.412Z,5.60
2023-11-08T21:00:35.048Z,4.57
2023-11-08T21:03:04.045Z,6.10
2023-11-08T21:05:31.255Z,5.20
2023-11-08T21:07:58.135Z,5.17
2023-11-08T21:10:25.105Z,6.30
2023-11-08T21:12:52.169Z,4.60
2023-11-08T21:15:19.515Z,4.87
2023-11-08T21:17:47.059Z,5.07
2023-11-08T21:20:15.309Z,4.23
2023-11-08T21:22:42.264Z,4.53
2023-11-08T21:25:10.241Z,4.13
2023-11-08T21:27:37.239Z,3.90
2023-11-08T21:30:06.303Z,4.20
2023-11-08T21:32:33.264Z,4.73
2023-11-08T21:35:00.236Z,4.53
2023-11-08T21:37:28.582Z,4.00
2023-11-08T21:39:56.674Z,4.67
2023-11-08T21:42:24.050Z,4.93
2023-11-08T21:44:50.855Z,4.40
2023-11-08T21:47:17.761Z,5.40
2023-11-08T21:49:44.694Z,4.73
2023-11-08T21:52:12.377Z,5.10
2023-11-08T21:54:40.262Z,5.73
2023-11-08T21:57:11.199Z,5.40
2023-11-08T21:59:46.936Z,5.63
2023-11-08T22:02:15.026Z,6.70
2023-11-08T22:04:42.180Z,5.00
2023-11-08T22:07:09.087Z,9.97
2023-11-08T22:09:36.787Z,9.20
2023-11-08T22:12:03.836Z,4.07
2023-11-08T22:14:30.630Z,4.60
2023-11-08T22:16:58.007Z,4.10
2023-11-08T22:19:25.277Z,4.23
2023-11-08T22:21:52.221Z,3.93
2023-11-08T22:24:19.597Z,3.80
2023-11-08T22:26:46.417Z,4.20
2023-11-08T22:29:13.388Z,4.40
2023-11-08T22:31:42.863Z,4.10
2023-11-08T22:34:10.164Z,4.40
2023-11-08T22:36:36.945Z,4.40
2023-11-08T22:39:05.005Z,4.47
2023-11-08T22:41:31.760Z,4.80
2023-11-08T22:43:58.794Z,5.10
2023-11-08T22:46:31.379Z,5.73
2023-11-08T22:48:59.704Z,6.00
2023-11-08T22:51:26.851Z,9.47
2023-11-08T22:53:55.280Z,6.40
2023-11-08T22:56:22.216Z,7.13
2023-11-08T22:58:49.272Z,6.20
2023-11-08T23:01:33.390Z,5.90
2023-11-08T23:04:01.879Z,5.17
2023-11-08T23:06:30.410Z,6.40
2023-11-08T23:08:58.984Z,6.50
2023-11-08T23:11:26.911Z,7.13
2023-11-08T23:13:55.194Z,5.27
2023-11-08T23:16:22.501Z,6.50
2023-11-08T23:18:55.912Z,5.00
2023-11-08T23:21:23.067Z,4.60
2023-11-08T23:23:52.033Z,4.27
2023-11-08T23:26:19.184Z,4.10
2023-11-08T23:28:46.320Z,4.00
2023-11-08T23:31:13.417Z,3.77
2023-11-08T23:33:40.601Z,4.07
2023-11-08T23:36:07.899Z,3.47
2023-11-08T23:38:34.691Z,3.53
2023-11-08T23:41:01.548Z,4.00
2023-11-08T23:43:28.358Z,3.47
2023-11-08T23:45:55.591Z,3.43
2023-11-08T23:48:22.367Z,4.07
2023-11-08T23:50:49.340Z,3.67
2023-11-08T23:53:16.486Z,4.10
2023-11-08T23:55:43.495Z,3.50
2023-11-08T23:58:11.590Z,3.50
